createdAt,value
2019-04-01T00:01:28.400Z,43.10
2019-04-01T00:05:34.163Z,48.10
2019-04-01T00:09:39.878Z,46.50
2019-04-01T00:13:45.591Z,42.10
2019-04-01T00:17:51.283Z,42.90
2019-04-01T00:21:57.063Z,43.50
2019-04-01T00:26:02.770Z,43.70
2019-04-01T00:30:08.781Z,46.20
2019-04-01T00:34:14.479Z,46.20
2019-04-01T00:38:20.174Z,49.40
2019-04-01T00:42:27.521Z,47.50
2019-04-01T00:46:33.204Z,48.30
2019-04-01T00:50:38.903Z,48.10
2019-04-01T00:54:44.682Z,47.10
2019-04-01T00:58:50.419Z,49.00
2019-04-01T01:02:56.133Z,47.10
2019-04-01T01:07:01.898Z,45.00
2019-04-01T01:11:07.704Z,52.30
2019-04-01T01:15:14.541Z,47.10
2019-04-01T01:19:20.879Z,49.00
2019-04-01T01:23:26.595Z,46.90
2019-04-01T01:27:32.298Z,45.00
2019-04-01T01:31:39.766Z,45.70
2019-04-01T01:35:45.617Z,47.30
2019-04-01T01:39:51.318Z,48.20
2019-04-01T01:43:57.002Z,49.90
2019-04-01T01:48:02.707Z,51.70
2019-04-01T01:52:08.410Z,54.80
2019-04-01T01:56:14.115Z,46.70
2019-04-01T02:00:20.816Z,46.00
2019-04-01T02:04:26.482Z,47.20
2019-04-01T02:08:32.230Z,49.20
2019-04-01T02:12:39.000Z,47.00
2019-04-01T02:16:44.705Z,48.30
2019-04-01T02:20:50.421Z,48.50
2019-04-01T02:24:56.104Z,51.70
2019-04-01T02:29:01.805Z,50.60
2019-04-01T02:33:07.511Z,51.80
2019-04-01T02:37:13.308Z,50.80
2019-04-01T02:41:19.110Z,50.70
2019-04-01T02:45:24.865Z,55.60
2019-04-01T02:49:30.567Z,49.30
2019-04-01T02:53:36.382Z,49.20
2019-04-01T02:57:42.068Z,54.40
2019-04-01T03:01:47.801Z,55.50
2019-04-01T03:05:53.485Z,47.50
2019-04-01T03:09:59.170Z,54.80
2019-04-01T03:14:05.012Z,55.30
2019-04-01T03:18:10.811Z,51.50
2019-04-01T03:22:16.535Z,51.50
2019-04-01T03:26:22.214Z,51.60
2019-04-01T03:30:27.918Z,51.90
2019-04-01T03:34:33.614Z,55.40
2019-04-01T03:38:39.690Z,47.90
2019-04-01T03:42:45.392Z,58.00
2019-04-01T03:46:51.090Z,48.00
2019-04-01T03:50:56.865Z,48.90
2019-04-01T03:55:02.559Z,49.80
2019-04-01T03:59:08.266Z,55.60
2019-04-01T04:03:14.043Z,58.00
2019-04-01T04:07:19.730Z,51.60
2019-04-01T04:11:25.450Z,52.60
2019-04-01T04:15:31.169Z,55.60
2019-04-01T04:19:36.871Z,52.40
2019-04-01T04:23:42.585Z,55.10
2019-04-01T04:27:48.291Z,63.00
2019-04-01T04:31:53.990Z,56.30
2019-04-01T04:36:00.775Z,56.70
2019-04-01T04:40:08.429Z,59.60
2019-04-01T04:44:17.250Z,56.20
2019-04-01T04:48:23.003Z,55.10
2019-04-01T04:52:28.774Z,54.30
2019-04-01T05:01:06.188Z,62.10
2019-04-01T05:05:12.007Z,52.10
2019-04-01T05:09:17.709Z,54.70
2019-04-01T05:13:23.410Z,55.80
2019-04-01T05:17:29.350Z,59.30
2019-04-01T05:21:36.859Z,55.60
2019-04-01T05:25:44.930Z,56.00
2019-04-01T05:29:54.171Z,55.10
2019-04-01T05:34:02.435Z,58.60
2019-04-01T05:38:08.377Z,58.30
2019-04-01T05:42:14.373Z,56.40
2019-04-01T05:46:20.200Z,66.20
2019-04-01T05:50:26.040Z,59.80
2019-04-01T05:54:31.744Z,54.60
2019-04-01T05:58:37.788Z,54.80
2019-04-01T06:02:43.778Z,57.60
2019-04-01T06:06:49.725Z,70.00
2019-04-01T06:10:55.815Z,64.40
2019-04-01T06:15:01.581Z,57.80
2019-04-01T06:19:07.295Z,54.40
2019-04-01T06:27:19.418Z,46.20
2019-04-01T06:31:25.193Z,50.90
2019-04-01T06:35:31.137Z,49.60
2019-04-01T06:39:36.917Z,49.20
2019-04-01T06:43:42.802Z,48.40
2019-04-01T06:47:48.569Z,47.70
2019-04-01T06:51:54.419Z,47.00
2019-04-01T06:56:00.267Z,40.90
2019-04-01T07:00:09.339Z,41.60
2019-04-01T07:04:16.129Z,43.20
2019-04-01T07:08:21.970Z,46.60
2019-04-01T07:12:27.673Z,45.50
2019-04-01T07:16:33.540Z,38.90
2019-04-01T07:20:39.394Z,45.00
2019-04-01T07:24:45.067Z,43.90
2019-04-01T07:28:50.920Z,44.50
2019-04-01T07:32:56.684Z,41.30
2019-04-01T07:37:02.407Z,41.80
2019-04-01T07:41:08.361Z,46.10
2019-04-01T07:45:14.322Z,45.20
2019-04-01T07:49:20.157Z,36.90
2019-04-01T07:53:25.981Z,43.40
2019-04-01T07:57:32.774Z,43.90
2019-04-01T08:01:38.718Z,41.90
2019-04-01T08:05:44.431Z,41.80
2019-04-01T08:09:51.264Z,40.00
2019-04-01T08:13:57.117Z,36.30
2019-04-01T08:18:02.987Z,40.60
2019-04-01T08:22:08.855Z,40.60
2019-04-01T08:26:14.905Z,38.00
2019-04-01T08:30:20.933Z,36.20
2019-04-01T08:34:26.655Z,35.90
2019-04-01T08:38:32.544Z,39.00
2019-04-01T08:42:38.491Z,34.80
2019-04-01T08:46:44.582Z,40.50
2019-04-01T08:51:17.550Z,35.10
2019-04-01T08:55:23.539Z,37.10
2019-04-01T08:59:29.671Z,36.10
2019-04-01T09:03:35.388Z,35.60
2019-04-01T09:07:41.922Z,34.40
2019-04-01T09:11:47.825Z,32.20
2019-04-01T09:15:54.256Z,33.60
2019-04-01T09:19:59.964Z,35.80
2019-04-01T09:24:05.817Z,33.30
2019-04-01T09:28:11.642Z,32.80
2019-04-01T09:32:17.661Z,30.60
2019-04-01T09:36:23.439Z,33.50
2019-04-01T09:40:29.221Z,35.00
2019-04-01T09:44:37.121Z,34.10
2019-04-01T09:48:42.451Z,33.40
2019-04-01T09:52:48.244Z,33.10
2019-04-01T09:56:53.964Z,32.50
2019-04-01T10:06:04.641Z,30.60
2019-04-01T10:10:11.633Z,30.70
2019-04-01T10:14:17.352Z,30.20
2019-04-01T10:18:23.162Z,27.90
2019-04-01T10:22:29.944Z,28.40
2019-04-01T10:26:35.661Z,30.00
2019-04-01T10:30:41.420Z,30.30
2019-04-01T10:34:47.126Z,29.70
2019-04-01T10:38:52.997Z,29.70
2019-04-01T10:42:58.779Z,29.80
2019-04-01T10:47:04.638Z,28.30
2019-04-01T10:51:10.509Z,28.80
2019-04-01T10:55:17.307Z,29.60
2019-04-01T10:59:23.233Z,29.50
2019-04-01T11:03:29.034Z,29.00
2019-04-01T11:07:34.909Z,29.30
2019-04-01T11:11:41.719Z,28.70
2019-04-01T11:15:48.141Z,28.30
2019-04-01T11:19:54.677Z,27.20
2019-04-01T11:24:01.260Z,27.00
2019-04-01T11:28:08.821Z,27.10
2019-04-01T11:32:14.616Z,26.40
2019-04-01T11:36:20.396Z,25.40
2019-04-01T11:40:26.256Z,25.50
2019-04-01T11:44:32.026Z,25.50
2019-04-01T11:48:37.819Z,25.70
2019-04-01T11:52:43.540Z,25.10
2019-04-01T11:56:49.308Z,25.60
2019-04-01T12:00:55.163Z,26.40
2019-04-01T12:05:00.843Z,25.90
2019-04-01T12:09:07.608Z,25.60
2019-04-01T12:13:19.503Z,26.80
2019-04-01T12:17:25.342Z,26.80
2019-04-01T12:21:31.298Z,28.40
2019-04-01T12:25:37.064Z,29.60
2019-04-01T12:29:42.773Z,30.60
2019-04-01T12:33:48.553Z,29.30
2019-04-01T12:37:54.255Z,29.70
2019-04-01T12:42:00.091Z,30.00
2019-04-01T12:46:06.156Z,30.00
2019-04-01T12:50:18.169Z,30.60
2019-04-01T12:54:23.925Z,31.00
2019-04-01T12:58:29.674Z,31.00
2019-04-01T13:02:35.384Z,29.40
2019-04-01T13:06:41.098Z,30.70
2019-04-01T13:10:46.849Z,28.60
2019-04-01T13:14:55.433Z,29.90
2019-04-01T13:18:59.951Z,27.90
2019-04-01T13:23:17.795Z,29.20
2019-04-01T13:27:23.531Z,31.00
2019-04-01T13:31:29.324Z,29.00
2019-04-01T13:35:35.154Z,28.50
2019-04-01T13:39:40.864Z,29.90
2019-04-01T13:43:46.561Z,32.10
2019-04-01T13:47:52.263Z,29.30
2019-04-01T13:51:59.068Z,29.20
2019-04-01T13:56:16.922Z,32.00
2019-04-01T14:00:26.795Z,28.10
2019-04-01T14:04:30.187Z,31.00
2019-04-01T14:08:35.900Z,28.80
2019-04-01T14:12:42.692Z,28.50
2019-04-01T14:16:48.545Z,27.20
2019-04-01T14:20:54.263Z,27.50
2019-04-01T14:24:59.970Z,27.30
2019-04-01T14:29:17.659Z,28.60
2019-04-01T14:33:23.361Z,29.50
2019-04-01T14:37:30.110Z,28.30
2019-04-01T14:41:36.054Z,27.70
2019-04-01T14:45:41.774Z,29.50
2019-04-01T14:49:47.502Z,28.70
2019-04-01T14:53:53.189Z,31.40
2019-04-01T14:58:19.768Z,32.60
2019-04-01T15:02:25.531Z,34.10
2019-04-01T15:06:31.386Z,36.20
2019-04-01T15:10:40.769Z,36.30
2019-04-01T15:14:44.525Z,34.50
2019-04-01T15:18:50.255Z,35.70
2019-04-01T15:22:56.354Z,35.90
2019-04-01T15:27:02.138Z,38.00
2019-04-01T15:32:17.207Z,37.50
2019-04-01T15:53:18.964Z,40.10
2019-04-01T16:10:15.760Z,39.50
2019-04-01T16:26:16.011Z,38.30
2019-04-01T16:31:15.469Z,36.30
2019-04-01T16:41:17.040Z,38.50
2019-04-01T16:52:15.650Z,37.70
2019-04-01T17:03:16.179Z,38.50
2019-04-01T17:08:16.688Z,39.10
2019-04-01T17:19:16.228Z,38.00
2019-04-01T17:40:17.189Z,39.50
2019-04-01T17:44:22.927Z,36.20
2019-04-01T17:48:28.839Z,40.40
2019-04-01T17:52:34.516Z,37.70
2019-04-01T17:56:40.254Z,39.70
2019-04-01T18:00:47.673Z,39.00
2019-04-01T18:04:53.451Z,40.00
2019-04-01T18:08:59.268Z,38.10
2019-04-01T18:13:05.203Z,38.00
2019-04-01T18:17:11.203Z,38.40
2019-04-01T18:21:17.878Z,39.50
2019-04-01T18:25:24.725Z,37.60
2019-04-01T18:29:30.447Z,39.70
2019-04-01T18:33:36.248Z,40.80
2019-04-01T18:37:42.023Z,39.20
2019-04-01T18:41:47.816Z,37.20
2019-04-01T18:45:53.841Z,41.40
2019-04-01T18:49:59.638Z,37.90
2019-04-01T18:54:05.604Z,38.50
2019-04-01T18:58:11.593Z,36.70
2019-04-01T19:02:17.288Z,37.70
2019-04-01T19:06:23.006Z,37.60
2019-04-01T19:10:28.822Z,37.80
2019-04-01T19:14:34.656Z,39.20
2019-04-01T19:18:41.883Z,38.60
2019-04-01T19:22:47.752Z,38.00
2019-04-01T19:26:53.523Z,40.50
2019-04-01T19:30:59.387Z,39.10
2019-04-01T19:35:09.522Z,38.70
2019-04-01T19:39:15.439Z,39.70
2019-04-01T19:43:21.156Z,39.60
2019-04-01T19:48:18.081Z,40.60
2019-04-01T20:03:17.158Z,41.10
2019-04-01T20:18:19.767Z,41.40
2019-04-01T20:33:57.339Z,42.10
2019-04-01T20:43:19.287Z,43.70
2019-04-01T20:48:16.286Z,44.00
2019-04-01T20:52:22.014Z,43.90
2019-04-01T20:57:21.680Z,43.60
2019-04-01T21:01:26.001Z,44.00
2019-04-01T21:06:16.477Z,43.60
2019-04-01T21:14:52.216Z,43.60
2019-04-01T21:18:57.925Z,44.80
2019-04-01T21:23:03.624Z,44.80
2019-04-01T21:27:09.341Z,44.50
2019-04-01T21:31:15.028Z,44.30
2019-04-01T21:35:21.785Z,44.50
2019-04-01T21:39:27.481Z,44.40
2019-04-01T21:43:33.187Z,44.10
2019-04-01T21:47:38.897Z,44.20
2019-04-01T21:51:44.755Z,45.10
2019-04-01T21:55:50.453Z,45.10
2019-04-01T21:59:56.162Z,45.40
2019-04-01T22:04:01.871Z,45.20
2019-04-01T22:08:07.624Z,45.70
2019-04-01T22:12:13.349Z,47.40
2019-04-01T22:16:19.154Z,46.90
2019-04-01T22:20:25.144Z,46.00
2019-04-01T22:24:30.842Z,45.10
2019-04-01T22:28:38.614Z,47.60
2019-04-01T22:32:44.343Z,46.70
2019-04-01T22:36:50.046Z,47.30
2019-04-01T22:40:55.761Z,47.50
2019-04-01T22:45:01.504Z,48.00
2019-04-01T22:49:07.277Z,48.70
2019-04-01T22:53:13.053Z,49.90
2019-04-01T22:57:18.811Z,50.80
2019-04-01T23:01:24.621Z,51.30
2019-04-01T23:05:30.308Z,51.10
2019-04-01T23:09:36.343Z,50.20
2019-04-01T23:13:43.694Z,50.70
2019-04-01T23:17:49.435Z,52.10
2019-04-01T23:21:55.138Z,53.30
2019-04-01T23:26:00.827Z,53.50
2019-04-01T23:30:10.874Z,52.60
2019-04-01T23:34:16.589Z,53.40
2019-04-01T23:38:22.296Z,53.40
2019-04-01T23:42:28.213Z,53.30
2019-04-01T23:46:34.165Z,53.40
2019-04-01T23:50:39.892Z,53.50
2019-04-01T23:54:45.583Z,53.60
2019-04-01T23:58:51.629Z,55.10
